Deale, Maryland
Current Conditions -  °F | °C
As of 4:54 PM on Tuesday 25 Nov 2014 (Local Time) from KNAK Reporting Station
Clear Clear  
Wind Chill: 46°   Ceiling: Unl
Heat Index: 48°   Visibility: 10mi
Dew Point: 39°   Wind: 5mph
Humidity: 71%   Direction: 140°SE
Pressure: 30.06"   Gusts: NA
Location:  38.78°N, 76.55°W
Report Text: KNAK 252154Z AUTO 14004KT 10SM CLR 09/04 A3006 RMK AO2 SLP180 T00890039
Loading
Personal Weather Stations






























Interactive Weather Map New forecast layout! Learn more

10-Day Weather Forecast

Advertisements
Track Severe Weather on mobile